sensor_id;sensor_type;location;lat;lon;timestamp;pressure;altitude;pressure_sealevel;temperature;humidity
64713;BME280;51140;45.340;5.980;2023-06-22T00:00:50;98056.38;;;21.27;65.37
64713;BME280;51140;45.340;5.980;2023-06-22T00:03:17;98052.09;;;21.14;64.75
64713;BME280;51140;45.340;5.980;2023-06-22T00:05:43;98055.06;;;21.33;63.47
64713;BME280;51140;45.340;5.980;2023-06-22T00:08:08;98051.66;;;21.24;64.63
64713;BME280;51140;45.340;5.980;2023-06-22T00:10:33;98055.16;;;21.24;65.92
64713;BME280;51140;45.340;5.980;2023-06-22T00:12:59;98052.81;;;21.23;65.03
64713;BME280;51140;45.340;5.980;2023-06-22T00:15:24;98052.22;;;21.29;64.49
64713;BME280;51140;45.340;5.980;2023-06-22T00:17:50;98047.75;;;21.00;64.31
64713;BME280;51140;45.340;5.980;2023-06-22T00:20:15;98033.91;;;21.23;64.04
64713;BME280;51140;45.340;5.980;2023-06-22T00:22:43;98037.84;;;21.25;64.59
64713;BME280;51140;45.340;5.980;2023-06-22T00:25:09;98053.94;;;21.34;63.75
64713;BME280;51140;45.340;5.980;2023-06-22T00:27:35;98051.81;;;20.94;67.00
64713;BME280;51140;45.340;5.980;2023-06-22T00:30:01;98037.50;;;20.82;66.46
64713;BME280;51140;45.340;5.980;2023-06-22T00:32:27;98047.09;;;21.03;67.84
64713;BME280;51140;45.340;5.980;2023-06-22T00:34:52;98047.41;;;20.90;66.80
64713;BME280;51140;45.340;5.980;2023-06-22T00:37:18;98040.63;;;20.51;66.86
64713;BME280;51140;45.340;5.980;2023-06-22T00:39:43;98044.91;;;20.85;67.32
64713;BME280;51140;45.340;5.980;2023-06-22T00:42:09;98043.25;;;20.92;65.99
64713;BME280;51140;45.340;5.980;2023-06-22T00:44:35;98050.06;;;20.45;68.09
64713;BME280;51140;45.340;5.980;2023-06-22T00:47:01;98048.22;;;20.58;66.59
64713;BME280;51140;45.340;5.980;2023-06-22T00:49:27;98040.06;;;20.78;65.60
64713;BME280;51140;45.340;5.980;2023-06-22T00:51:52;98044.78;;;20.81;67.12
64713;BME280;51140;45.340;5.980;2023-06-22T00:54:18;98034.09;;;20.40;68.30
64713;BME280;51140;45.340;5.980;2023-06-22T00:56:58;98026.72;;;20.49;68.39
64713;BME280;51140;45.340;5.980;2023-06-22T00:59:24;98015.97;;;20.20;68.28
64713;BME280;51140;45.340;5.980;2023-06-22T01:01:51;98034.00;;;20.28;68.90
64713;BME280;51140;45.340;5.980;2023-06-22T01:04:17;98029.28;;;20.45;67.17
64713;BME280;51140;45.340;5.980;2023-06-22T01:07:05;98020.53;;;20.28;67.31
64713;BME280;51140;45.340;5.980;2023-06-22T01:09:40;98020.38;;;20.24;67.89
64713;BME280;51140;45.340;5.980;2023-06-22T01:12:08;98038.00;;;20.63;66.64
64713;BME280;51140;45.340;5.980;2023-06-22T01:14:39;98035.53;;;20.37;66.66
64713;BME280;51140;45.340;5.980;2023-06-22T01:17:07;98032.44;;;20.27;67.35
64713;BME280;51140;45.340;5.980;2023-06-22T01:22:00;98022.66;;;20.55;66.28
64713;BME280;51140;45.340;5.980;2023-06-22T01:24:40;98018.81;;;20.44;66.92
64713;BME280;51140;45.340;5.980;2023-06-22T01:27:23;98003.28;;;20.20;68.64
64713;BME280;51140;45.340;5.980;2023-06-22T01:29:56;97996.50;;;20.35;67.18
64713;BME280;51140;45.340;5.980;2023-06-22T01:32:30;98002.78;;;20.27;68.21
64713;BME280;51140;45.340;5.980;2023-06-22T01:34:58;97986.84;;;20.13;69.00
64713;BME280;51140;45.340;5.980;2023-06-22T01:37:25;97966.75;;;20.11;68.42
64713;BME280;51140;45.340;5.980;2023-06-22T01:39:52;97959.91;;;20.34;68.64
64713;BME280;51140;45.340;5.980;2023-06-22T01:42:19;97978.53;;;20.60;68.17
64713;BME280;51140;45.340;5.980;2023-06-22T01:44:45;97961.59;;;20.18;69.58
64713;BME280;51140;45.340;5.980;2023-06-22T01:47:11;97954.53;;;19.92;68.80
64713;BME280;51140;45.340;5.980;2023-06-22T01:49:40;97948.25;;;20.42;66.20
64713;BME280;51140;45.340;5.980;2023-06-22T01:52:05;97950.31;;;20.57;67.23
64713;BME280;51140;45.340;5.980;2023-06-22T01:54:31;97937.72;;;20.49;66.52
64713;BME280;51140;45.340;5.980;2023-06-22T01:56:56;97947.06;;;20.64;66.83
64713;BME280;51140;45.340;5.980;2023-06-22T01:59:29;97957.66;;;20.36;67.68
64713;BME280;51140;45.340;5.980;2023-06-22T02:02:06;97955.72;;;20.57;66.46
64713;BME280;51140;45.340;5.980;2023-06-22T02:04:40;97947.44;;;20.86;65.10
64713;BME280;51140;45.340;5.980;2023-06-22T02:07:15;97954.66;;;20.82;66.22
64713;BME280;51140;45.340;5.980;2023-06-22T02:09:46;97956.63;;;20.61;66.70
64713;BME280;51140;45.340;5.980;2023-06-22T02:12:17;97963.91;;;20.61;67.04
64713;BME280;51140;45.340;5.980;2023-06-22T02:14:45;97985.78;;;20.80;67.14
64713;BME280;51140;45.340;5.980;2023-06-22T02:17:11;97999.56;;;20.66;66.65
64713;BME280;51140;45.340;5.980;2023-06-22T02:19:38;98017.41;;;20.91;68.20
64713;BME280;51140;45.340;5.980;2023-06-22T02:22:04;98006.78;;;20.74;68.63
64713;BME280;51140;45.340;5.980;2023-06-22T02:24:30;98000.25;;;20.63;68.80
64713;BME280;51140;45.340;5.980;2023-06-22T02:27:00;98024.09;;;20.73;68.86
64713;BME280;51140;45.340;5.980;2023-06-22T02:29:26;98008.16;;;20.47;69.02
64713;BME280;51140;45.340;5.980;2023-06-22T02:31:53;98016.66;;;20.37;69.68
64713;BME280;51140;45.340;5.980;2023-06-22T02:34:18;98015.59;;;20.50;69.10
64713;BME280;51140;45.340;5.980;2023-06-22T02:36:45;97994.47;;;19.90;70.88
64713;BME280;51140;45.340;5.980;2023-06-22T02:39:18;97998.63;;;20.09;71.07
64713;BME280;51140;45.340;5.980;2023-06-22T02:41:44;97999.00;;;20.19;69.53
64713;BME280;51140;45.340;5.980;2023-06-22T02:44:10;97993.00;;;19.72;70.46
64713;BME280;51140;45.340;5.980;2023-06-22T02:46:35;97993.00;;;19.72;71.67
64713;BME280;51140;45.340;5.980;2023-06-22T02:49:01;97985.88;;;19.76;70.35
64713;BME280;51140;45.340;5.980;2023-06-22T02:51:26;97983.97;;;19.77;71.05
64713;BME280;51140;45.340;5.980;2023-06-22T02:53:52;97966.88;;;19.73;70.54
64713;BME280;51140;45.340;5.980;2023-06-22T02:56:21;97971.28;;;19.77;71.33
64713;BME280;51140;45.340;5.980;2023-06-22T02:58:50;97973.09;;;19.65;71.65
64713;BME280;51140;45.340;5.980;2023-06-22T03:01:15;97971.53;;;19.84;70.61
64713;BME280;51140;45.340;5.980;2023-06-22T03:03:41;97977.38;;;19.86;69.79
64713;BME280;51140;45.340;5.980;2023-06-22T03:06:06;97967.69;;;19.94;70.55
64713;BME280;51140;45.340;5.980;2023-06-22T03:08:31;97976.13;;;19.84;71.37
64713;BME280;51140;45.340;5.980;2023-06-22T03:10:57;97988.16;;;20.07;70.07
64713;BME280;51140;45.340;5.980;2023-06-22T03:13:23;97988.81;;;20.04;69.46
64713;BME280;51140;45.340;5.980;2023-06-22T03:15:48;97981.88;;;19.82;70.48
64713;BME280;51140;45.340;5.980;2023-06-22T03:18:14;97988.50;;;20.06;68.89
64713;BME280;51140;45.340;5.980;2023-06-22T03:20:41;97986.44;;;20.32;68.71
64713;BME280;51140;45.340;5.980;2023-06-22T03:23:06;97969.00;;;20.09;70.76
64713;BME280;51140;45.340;5.980;2023-06-22T03:25:31;97966.22;;;20.17;70.74
64713;BME280;51140;45.340;5.980;2023-06-22T03:27:58;97987.78;;;20.38;70.13
64713;BME280;51140;45.340;5.980;2023-06-22T03:30:24;97989.94;;;20.24;71.28
64713;BME280;51140;45.340;5.980;2023-06-22T03:32:49;97971.94;;;19.74;71.95
64713;BME280;51140;45.340;5.980;2023-06-22T03:35:15;97976.34;;;19.99;71.23
64713;BME280;51140;45.340;5.980;2023-06-22T03:37:40;97984.97;;;20.34;71.09
64713;BME280;51140;45.340;5.980;2023-06-22T03:40:06;97984.34;;;19.87;71.52
64713;BME280;51140;45.340;5.980;2023-06-22T03:42:34;97972.25;;;19.73;70.90
64713;BME280;51140;45.340;5.980;2023-06-22T03:45:00;97995.88;;;20.17;71.70
64713;BME280;51140;45.340;5.980;2023-06-22T03:47:26;98001.84;;;20.23;70.46
64713;BME280;51140;45.340;5.980;2023-06-22T03:49:52;98019.44;;;20.29;68.97
64713;BME280;51140;45.340;5.980;2023-06-22T03:52:20;98021.97;;;20.46;69.11
64713;BME280;51140;45.340;5.980;2023-06-22T03:54:46;98037.19;;;20.21;70.89
64713;BME280;51140;45.340;5.980;2023-06-22T03:57:11;98087.06;;;20.36;70.72
64713;BME280;51140;45.340;5.980;2023-06-22T03:59:36;98124.56;;;20.29;69.96
64713;BME280;51140;45.340;5.980;2023-06-22T04:02:02;98156.63;;;20.13;70.51
64713;BME280;51140;45.340;5.980;2023-06-22T04:04:27;98183.88;;;20.29;70.17
64713;BME280;51140;45.340;5.980;2023-06-22T04:06:53;98182.41;;;20.31;70.04
64713;BME280;51140;45.340;5.980;2023-06-22T04:09:18;98213.78;;;20.36;70.63
64713;BME280;51140;45.340;5.980;2023-06-22T04:11:44;98226.16;;;20.37;70.59
64713;BME280;51140;45.340;5.980;2023-06-22T04:14:09;98240.25;;;20.42;70.46
64713;BME280;51140;45.340;5.980;2023-06-22T04:16:34;98249.84;;;20.14;70.74
64713;BME280;51140;45.340;5.980;2023-06-22T04:19:00;98253.47;;;20.27;71.28
64713;BME280;51140;45.340;5.980;2023-06-22T04:21:25;98260.81;;;20.47;71.75
64713;BME280;51140;45.340;5.980;2023-06-22T04:23:51;98287.56;;;20.61;70.94
64713;BME280;51140;45.340;5.980;2023-06-22T04:26:16;98302.31;;;20.63;70.34
64713;BME280;51140;45.340;5.980;2023-06-22T04:28:41;98316.25;;;20.27;71.19
64713;BME280;51140;45.340;5.980;2023-06-22T04:31:07;98339.38;;;20.37;71.43
64713;BME280;51140;45.340;5.980;2023-06-22T04:33:32;98336.91;;;20.15;72.18
64713;BME280;51140;45.340;5.980;2023-06-22T04:35:59;98325.22;;;20.48;70.65
64713;BME280;51140;45.340;5.980;2023-06-22T04:38:29;98324.75;;;20.46;69.17
64713;BME280;51140;45.340;5.980;2023-06-22T04:40:56;98330.22;;;20.67;70.87
64713;BME280;51140;45.340;5.980;2023-06-22T04:43:22;98317.31;;;20.73;70.47
64713;BME280;51140;45.340;5.980;2023-06-22T04:45:47;98329.38;;;20.46;72.55
64713;BME280;51140;45.340;5.980;2023-06-22T04:48:17;98314.53;;;20.14;73.81
64713;BME280;51140;45.340;5.980;2023-06-22T04:50:42;98316.47;;;19.96;75.53
64713;BME280;51140;45.340;5.980;2023-06-22T04:53:09;98321.47;;;20.24;75.06
64713;BME280;51140;45.340;5.980;2023-06-22T04:55:37;98334.94;;;20.32;76.26
64713;BME280;51140;45.340;5.980;2023-06-22T04:58:07;98331.31;;;20.37;75.62
64713;BME280;51140;45.340;5.980;2023-06-22T05:00:32;98328.81;;;20.15;75.27
64713;BME280;51140;45.340;5.980;2023-06-22T05:03:01;98316.97;;;19.90;75.29
64713;BME280;51140;45.340;5.980;2023-06-22T05:05:28;98336.06;;;20.23;77.01
64713;BME280;51140;45.340;5.980;2023-06-22T05:07:56;98326.81;;;19.86;76.00
64713;BME280;51140;45.340;5.980;2023-06-22T05:10:25;98305.31;;;19.60;77.42
64713;BME280;51140;45.340;5.980;2023-06-22T05:12:50;98297.38;;;20.19;77.51
64713;BME280;51140;45.340;5.980;2023-06-22T05:15:16;98276.66;;;20.11;76.69
64713;BME280;51140;45.340;5.980;2023-06-22T05:17:41;98258.22;;;19.66;77.39
64713;BME280;51140;45.340;5.980;2023-06-22T05:20:13;98217.38;;;19.64;77.51
64713;BME280;51140;45.340;5.980;2023-06-22T05:22:39;98197.63;;;19.52;77.28
64713;BME280;51140;45.340;5.980;2023-06-22T05:25:09;98178.91;;;19.55;77.14
64713;BME280;51140;45.340;5.980;2023-06-22T05:27:34;98182.16;;;19.78;76.62
64713;BME280;51140;45.340;5.980;2023-06-22T05:30:07;98198.03;;;20.09;75.00
64713;BME280;51140;45.340;5.980;2023-06-22T05:32:33;98208.44;;;20.19;74.14
64713;BME280;51140;45.340;5.980;2023-06-22T05:34:59;98204.47;;;20.25;72.66
64713;BME280;51140;45.340;5.980;2023-06-22T05:37:25;98181.06;;;20.46;71.47
64713;BME280;51140;45.340;5.980;2023-06-22T05:39:51;98171.94;;;20.80;71.99
64713;BME280;51140;45.340;5.980;2023-06-22T05:42:17;98179.22;;;20.59;73.34
64713;BME280;51140;45.340;5.980;2023-06-22T05:44:42;98182.44;;;20.52;72.24
64713;BME280;51140;45.340;5.980;2023-06-22T05:47:07;98181.59;;;20.60;72.72
64713;BME280;51140;45.340;5.980;2023-06-22T05:49:33;98164.34;;;20.32;74.18
64713;BME280;51140;45.340;5.980;2023-06-22T05:51:59;98150.59;;;20.45;72.56
64713;BME280;51140;45.340;5.980;2023-06-22T05:54:27;98169.28;;;20.92;71.15
64713;BME280;51140;45.340;5.980;2023-06-22T05:56:52;98157.44;;;20.84;69.85
64713;BME280;51140;45.340;5.980;2023-06-22T05:59:18;98213.25;;;20.92;73.13
64713;BME280;51140;45.340;5.980;2023-06-22T06:01:43;98201.91;;;20.78;69.98
64713;BME280;51140;45.340;5.980;2023-06-22T06:04:08;98209.69;;;21.00;72.79
64713;BME280;51140;45.340;5.980;2023-06-22T06:06:34;98197.38;;;20.91;71.84
64713;BME280;51140;45.340;5.980;2023-06-22T06:09:00;98205.81;;;20.89;73.77
64713;BME280;51140;45.340;5.980;2023-06-22T06:11:25;98215.63;;;20.94;73.75
64713;BME280;51140;45.340;5.980;2023-06-22T06:13:51;98200.59;;;20.84;72.88
64713;BME280;51140;45.340;5.980;2023-06-22T06:16:16;98188.16;;;20.92;74.01
64713;BME280;51140;45.340;5.980;2023-06-22T06:18:42;98180.28;;;21.07;74.33
64713;BME280;51140;45.340;5.980;2023-06-22T06:21:07;98182.03;;;21.03;71.96
64713;BME280;51140;45.340;5.980;2023-06-22T06:23:32;98210.47;;;21.01;72.31
64713;BME280;51140;45.340;5.980;2023-06-22T06:25:58;98222.72;;;20.98;73.79
64713;BME280;51140;45.340;5.980;2023-06-22T06:28:24;98214.34;;;21.33;72.08
64713;BME280;51140;45.340;5.980;2023-06-22T06:30:50;98199.44;;;20.73;73.01
64713;BME280;51140;45.340;5.980;2023-06-22T06:33:17;98183.25;;;20.73;74.09
64713;BME280;51140;45.340;5.980;2023-06-22T06:35:42;98167.13;;;20.65;73.48
64713;BME280;51140;45.340;5.980;2023-06-22T06:38:08;98144.41;;;20.86;73.33
64713;BME280;51140;45.340;5.980;2023-06-22T06:40:33;98140.25;;;21.09;72.78
64713;BME280;51140;45.340;5.980;2023-06-22T06:42:59;98166.69;;;21.37;68.98
64713;BME280;51140;45.340;5.980;2023-06-22T06:45:24;98168.34;;;21.74;69.27
64713;BME280;51140;45.340;5.980;2023-06-22T06:47:51;98153.41;;;21.44;70.56
64713;BME280;51140;45.340;5.980;2023-06-22T06:50:17;98128.56;;;21.62;70.31
64713;BME280;51140;45.340;5.980;2023-06-22T06:52:43;98128.44;;;21.47;69.73
64713;BME280;51140;45.340;5.980;2023-06-22T06:55:09;98147.00;;;21.48;69.28
64713;BME280;51140;45.340;5.980;2023-06-22T06:57:38;98143.78;;;21.79;67.22
64713;BME280;51140;45.340;5.980;2023-06-22T07:00:05;98144.47;;;21.76;69.38
64713;BME280;51140;45.340;5.980;2023-06-22T07:02:34;98141.06;;;21.67;68.77
64713;BME280;51140;45.340;5.980;2023-06-22T07:05:00;98139.72;;;21.73;66.83
64713;BME280;51140;45.340;5.980;2023-06-22T07:07:25;98137.91;;;21.53;67.65
64713;BME280;51140;45.340;5.980;2023-06-22T07:09:51;98147.03;;;21.73;68.68
64713;BME280;51140;45.340;5.980;2023-06-22T07:12:16;98158.03;;;21.55;67.56
64713;BME280;51140;45.340;5.980;2023-06-22T07:14:41;98141.28;;;21.62;65.69
64713;BME280;51140;45.340;5.980;2023-06-22T07:17:07;98168.22;;;21.71;67.44
64713;BME280;51140;45.340;5.980;2023-06-22T07:19:32;98189.28;;;21.77;66.45
64713;BME280;51140;45.340;5.980;2023-06-22T07:21:58;98174.41;;;21.71;67.02
64713;BME280;51140;45.340;5.980;2023-06-22T07:24:23;98180.13;;;21.57;68.67
64713;BME280;51140;45.340;5.980;2023-06-22T07:26:49;98190.00;;;21.53;69.03
64713;BME280;51140;45.340;5.980;2023-06-22T07:29:17;98224.00;;;21.54;70.10
64713;BME280;51140;45.340;5.980;2023-06-22T07:31:42;98181.53;;;22.24;60.20
64713;BME280;51140;45.340;5.980;2023-06-22T07:34:07;98175.69;;;22.34;59.66
64713;BME280;51140;45.340;5.980;2023-06-22T07:36:33;98209.47;;;22.64;61.97
64713;BME280;51140;45.340;5.980;2023-06-22T07:39:01;98211.63;;;22.22;59.89
64713;BME280;51140;45.340;5.980;2023-06-22T07:41:26;98190.66;;;22.44;54.70
64713;BME280;51140;45.340;5.980;2023-06-22T07:43:52;98211.72;;;23.14;48.95
64713;BME280;51140;45.340;5.980;2023-06-22T07:46:17;98162.03;;;23.22;53.14
64713;BME280;51140;45.340;5.980;2023-06-22T07:48:42;98233.53;;;23.46;48.39
64713;BME280;51140;45.340;5.980;2023-06-22T07:51:09;98263.13;;;22.87;50.46
64713;BME280;51140;45.340;5.980;2023-06-22T07:53:34;98164.56;;;22.88;55.08
64713;BME280;51140;45.340;5.980;2023-06-22T07:56:01;98208.22;;;22.38;53.72
64713;BME280;51140;45.340;5.980;2023-06-22T07:58:32;98170.59;;;21.84;59.43
64713;BME280;51140;45.340;5.980;2023-06-22T08:00:57;98169.22;;;21.66;62.38
64713;BME280;51140;45.340;5.980;2023-06-22T08:03:23;98142.22;;;21.21;62.70
64713;BME280;51140;45.340;5.980;2023-06-22T08:05:48;98178.53;;;21.24;63.97
64713;BME280;51140;45.340;5.980;2023-06-22T08:08:14;98166.13;;;22.12;55.02
64713;BME280;51140;45.340;5.980;2023-06-22T08:10:39;98137.47;;;22.23;60.39
64713;BME280;51140;45.340;5.980;2023-06-22T08:13:06;98138.47;;;22.43;55.65
64713;BME280;51140;45.340;5.980;2023-06-22T08:15:31;98116.97;;;21.86;61.52
64713;BME280;51140;45.340;5.980;2023-06-22T08:17:56;98108.91;;;21.98;59.79
64713;BME280;51140;45.340;5.980;2023-06-22T08:20:23;98103.69;;;22.30;58.75
64713;BME280;51140;45.340;5.980;2023-06-22T08:22:48;98109.19;;;22.45;62.79
64713;BME280;51140;45.340;5.980;2023-06-22T08:25:14;98104.66;;;22.89;55.25
64713;BME280;51140;45.340;5.980;2023-06-22T08:27:39;98105.03;;;22.75;60.93
64713;BME280;51140;45.340;5.980;2023-06-22T08:30:06;98061.56;;;23.27;55.61
64713;BME280;51140;45.340;5.980;2023-06-22T08:32:31;98073.22;;;23.44;55.22
64713;BME280;51140;45.340;5.980;2023-06-22T08:34:58;98158.41;;;23.03;58.57
64713;BME280;51140;45.340;5.980;2023-06-22T08:37:24;98168.88;;;22.76;56.96
64713;BME280;51140;45.340;5.980;2023-06-22T08:39:55;98182.72;;;23.15;58.88
64713;BME280;51140;45.340;5.980;2023-06-22T08:42:21;98181.59;;;23.44;57.63
64713;BME280;51140;45.340;5.980;2023-06-22T08:44:46;98180.75;;;23.27;57.67
64713;BME280;51140;45.340;5.980;2023-06-22T08:47:11;98197.94;;;23.19;56.21
64713;BME280;51140;45.340;5.980;2023-06-22T08:49:37;98193.59;;;23.30;58.62
64713;BME280;51140;45.340;5.980;2023-06-22T08:52:02;98182.56;;;23.23;61.24
64713;BME280;51140;45.340;5.980;2023-06-22T08:54:28;98175.47;;;23.47;56.04
64713;BME280;51140;45.340;5.980;2023-06-22T08:56:53;98192.69;;;23.39;60.09
64713;BME280;51140;45.340;5.980;2023-06-22T08:59:18;98206.06;;;23.19;53.46
64713;BME280;51140;45.340;5.980;2023-06-22T09:01:44;98238.22;;;23.92;49.34
64713;BME280;51140;45.340;5.980;2023-06-22T09:04:11;98179.09;;;23.66;53.41
64713;BME280;51140;45.340;5.980;2023-06-22T09:06:37;98200.97;;;23.73;54.82
64713;BME280;51140;45.340;5.980;2023-06-22T09:09:06;98167.13;;;23.99;52.87
64713;BME280;51140;45.340;5.980;2023-06-22T09:11:31;98186.97;;;23.87;57.33
64713;BME280;51140;45.340;5.980;2023-06-22T09:13:57;98263.50;;;23.96;48.63
64713;BME280;51140;45.340;5.980;2023-06-22T09:16:22;98246.72;;;23.90;49.95
64713;BME280;51140;45.340;5.980;2023-06-22T09:18:48;98239.19;;;23.84;52.12
64713;BME280;51140;45.340;5.980;2023-06-22T09:21:13;98251.97;;;23.99;49.22
64713;BME280;51140;45.340;5.980;2023-06-22T09:23:39;98192.13;;;23.92;52.27
64713;BME280;51140;45.340;5.980;2023-06-22T09:26:05;98206.72;;;23.72;57.35
64713;BME280;51140;45.340;5.980;2023-06-22T09:28:30;98191.63;;;24.18;57.49
64713;BME280;51140;45.340;5.980;2023-06-22T09:30:55;98171.44;;;25.04;54.42
64713;BME280;51140;45.340;5.980;2023-06-22T09:33:24;98175.81;;;25.28;54.33
64713;BME280;51140;45.340;5.980;2023-06-22T09:35:49;98187.91;;;24.76;56.39
64713;BME280;51140;45.340;5.980;2023-06-22T09:38:16;98201.28;;;24.66;61.71
64713;BME280;51140;45.340;5.980;2023-06-22T09:40:41;98215.34;;;24.36;64.77
64713;BME280;51140;45.340;5.980;2023-06-22T09:43:07;98218.47;;;24.07;60.72
64713;BME280;51140;45.340;5.980;2023-06-22T09:45:32;98226.66;;;23.64;58.29
64713;BME280;51140;45.340;5.980;2023-06-22T09:47:58;98230.81;;;23.46;57.23
64713;BME280;51140;45.340;5.980;2023-06-22T09:50:23;98219.09;;;23.42;58.47
64713;BME280;51140;45.340;5.980;2023-06-22T09:52:49;98221.75;;;23.54;59.83
64713;BME280;51140;45.340;5.980;2023-06-22T09:55:20;98228.50;;;23.75;60.42
64713;BME280;51140;45.340;5.980;2023-06-22T09:57:45;98234.81;;;23.79;58.42
64713;BME280;51140;45.340;5.980;2023-06-22T10:00:11;98222.59;;;23.85;58.38
64713;BME280;51140;45.340;5.980;2023-06-22T10:02:41;98213.84;;;24.08;52.94
64713;BME280;51140;45.340;5.980;2023-06-22T10:05:07;98205.31;;;24.40;54.62
64713;BME280;51140;45.340;5.980;2023-06-22T10:07:33;98222.59;;;24.32;52.27
64713;BME280;51140;45.340;5.980;2023-06-22T10:09:58;98219.34;;;24.27;56.88
64713;BME280;51140;45.340;5.980;2023-06-22T10:12:25;98225.81;;;24.07;56.81
64713;BME280;51140;45.340;5.980;2023-06-22T10:14:50;98231.94;;;24.04;54.96
64713;BME280;51140;45.340;5.980;2023-06-22T10:17:15;98247.34;;;24.00;54.32
64713;BME280;51140;45.340;5.980;2023-06-22T10:19:41;98230.81;;;24.05;55.90
64713;BME280;51140;45.340;5.980;2023-06-22T10:22:06;98231.56;;;23.89;56.25
64713;BME280;51140;45.340;5.980;2023-06-22T10:24:32;98234.50;;;23.69;57.18
64713;BME280;51140;45.340;5.980;2023-06-22T10:26:57;98237.31;;;23.57;54.96
64713;BME280;51140;45.340;5.980;2023-06-22T10:29:23;98230.91;;;23.49;56.34
64713;BME280;51140;45.340;5.980;2023-06-22T10:31:48;98228.56;;;23.35;55.54
64713;BME280;51140;45.340;5.980;2023-06-22T10:34:13;98258.34;;;23.35;56.75
64713;BME280;51140;45.340;5.980;2023-06-22T10:36:39;98269.19;;;23.35;56.27
64713;BME280;51140;45.340;5.980;2023-06-22T10:39:04;98245.06;;;23.43;56.01
64713;BME280;51140;45.340;5.980;2023-06-22T10:41:31;98224.06;;;23.40;56.31
64713;BME280;51140;45.340;5.980;2023-06-22T10:43:56;98212.81;;;23.25;59.12
64713;BME280;51140;45.340;5.980;2023-06-22T10:46:24;98185.66;;;22.58;65.75
64713;BME280;51140;45.340;5.980;2023-06-22T10:48:49;98179.47;;;22.69;62.48
64713;BME280;51140;45.340;5.980;2023-06-22T10:51:15;98175.75;;;23.14;62.31
64713;BME280;51140;45.340;5.980;2023-06-22T10:53:40;98150.84;;;23.67;61.20
64713;BME280;51140;45.340;5.980;2023-06-22T10:56:06;98157.41;;;23.23;59.46
64713;BME280;51140;45.340;5.980;2023-06-22T10:58:31;98154.09;;;23.29;57.48
64713;BME280;51140;45.340;5.980;2023-06-22T11:00:57;98135.63;;;23.47;62.87
64713;BME280;51140;45.340;5.980;2023-06-22T11:03:24;98121.06;;;23.24;60.78
64713;BME280;51140;45.340;5.980;2023-06-22T11:05:49;98113.97;;;23.47;61.01
64713;BME280;51140;45.340;5.980;2023-06-22T11:08:15;98094.03;;;23.40;62.36
64713;BME280;51140;45.340;5.980;2023-06-22T11:10:40;98071.75;;;23.62;62.88
64713;BME280;51140;45.340;5.980;2023-06-22T11:13:05;98061.94;;;23.73;60.39
64713;BME280;51140;45.340;5.980;2023-06-22T11:15:35;98039.69;;;23.83;58.63
64713;BME280;51140;45.340;5.980;2023-06-22T11:20:25;98034.75;;;24.04;59.49
64713;BME280;51140;45.340;5.980;2023-06-22T11:22:50;98043.09;;;24.11;59.71
64713;BME280;51140;45.340;5.980;2023-06-22T11:25:16;98058.47;;;24.23;58.53
64713;BME280;51140;45.340;5.980;2023-06-22T11:27:41;98059.09;;;24.35;57.59
64713;BME280;51140;45.340;5.980;2023-06-22T11:30:07;98053.13;;;24.45;56.91
64713;BME280;51140;45.340;5.980;2023-06-22T11:32:34;98073.53;;;24.39;55.47
64713;BME280;51140;45.340;5.980;2023-06-22T11:34:59;98107.09;;;24.70;49.15
64713;BME280;51140;45.340;5.980;2023-06-22T11:37:24;98063.69;;;24.51;55.64
64713;BME280;51140;45.340;5.980;2023-06-22T11:39:51;98059.06;;;24.51;59.10
64713;BME280;51140;45.340;5.980;2023-06-22T11:42:17;98073.69;;;24.66;57.09
64713;BME280;51140;45.340;5.980;2023-06-22T11:44:42;98114.75;;;25.22;50.39
64713;BME280;51140;45.340;5.980;2023-06-22T11:47:09;98110.31;;;25.78;49.47
64713;BME280;51140;45.340;5.980;2023-06-22T11:49:34;98120.28;;;26.46;52.63
64713;BME280;51140;45.340;5.980;2023-06-22T11:51:59;98149.53;;;26.79;55.73
64713;BME280;51140;45.340;5.980;2023-06-22T11:54:25;98181.59;;;26.62;52.06
64713;BME280;51140;45.340;5.980;2023-06-22T11:56:50;98137.19;;;26.58;50.31
64713;BME280;51140;45.340;5.980;2023-06-22T11:59:15;98162.47;;;26.89;48.43
64713;BME280;51140;45.340;5.980;2023-06-22T12:01:41;98178.53;;;26.94;47.93
64713;BME280;51140;45.340;5.980;2023-06-22T12:04:06;98138.47;;;27.31;49.46
64713;BME280;51140;45.340;5.980;2023-06-22T12:06:32;98135.81;;;27.38;48.56
64713;BME280;51140;45.340;5.980;2023-06-22T12:08:58;98140.25;;;27.16;50.20
64713;BME280;51140;45.340;5.980;2023-06-22T12:11:24;98136.28;;;27.10;50.79
64713;BME280;51140;45.340;5.980;2023-06-22T12:13:49;98151.16;;;27.16;49.43
64713;BME280;51140;45.340;5.980;2023-06-22T12:16:14;98112.16;;;27.12;51.85
64713;BME280;51140;45.340;5.980;2023-06-22T12:18:40;98205.03;;;26.97;48.32
64713;BME280;51140;45.340;5.980;2023-06-22T12:21:05;98131.69;;;27.18;50.69
64713;BME280;51140;45.340;5.980;2023-06-22T12:23:30;98141.75;;;27.10;50.09
64713;BME280;51140;45.340;5.980;2023-06-22T12:25:56;98137.88;;;27.15;49.67
64713;BME280;51140;45.340;5.980;2023-06-22T12:28:21;98141.19;;;27.31;51.91
64713;BME280;51140;45.340;5.980;2023-06-22T12:30:48;98142.00;;;27.35;49.47
64713;BME280;51140;45.340;5.980;2023-06-22T12:33:13;98077.75;;;27.38;53.92
64713;BME280;51140;45.340;5.980;2023-06-22T12:35:39;98125.09;;;27.56;52.04
64713;BME280;51140;45.340;5.980;2023-06-22T12:38:04;98130.50;;;27.52;54.74
64713;BME280;51140;45.340;5.980;2023-06-22T12:40:31;98116.31;;;27.80;52.42
64713;BME280;51140;45.340;5.980;2023-06-22T12:42:58;98134.38;;;27.51;52.12
64713;BME280;51140;45.340;5.980;2023-06-22T12:45:23;98122.69;;;27.47;52.07
64713;BME280;51140;45.340;5.980;2023-06-22T12:47:49;98122.03;;;27.24;49.17
64713;BME280;51140;45.340;5.980;2023-06-22T12:50:15;98167.56;;;27.23;47.31
64713;BME280;51140;45.340;5.980;2023-06-22T12:52:41;98122.56;;;27.40;50.16
64713;BME280;51140;45.340;5.980;2023-06-22T12:55:07;98135.00;;;27.38;47.78
64713;BME280;51140;45.340;5.980;2023-06-22T12:57:32;98100.28;;;27.68;54.57
64713;BME280;51140;45.340;5.980;2023-06-22T12:59:58;98104.22;;;27.77;53.96